createdAt,value
2018-12-21T00:00:26.470Z,8.24
2018-12-21T00:01:26.487Z,8.28
2018-12-21T00:02:26.503Z,8.31
2018-12-21T00:03:26.518Z,8.36
2018-12-21T00:04:26.533Z,8.23
2018-12-21T00:05:26.550Z,8.30
2018-12-21T00:06:26.566Z,8.37
2018-12-21T00:07:26.584Z,8.31
2018-12-21T00:08:26.602Z,8.18
2018-12-21T00:09:26.614Z,8.30
2018-12-21T00:10:26.634Z,8.28
2018-12-21T00:11:26.648Z,8.23
2018-12-21T00:12:26.663Z,8.24
2018-12-21T00:13:26.683Z,8.27
2018-12-21T00:14:26.696Z,8.24
2018-12-21T00:15:26.711Z,8.24
2018-12-21T00:16:26.728Z,8.23
2018-12-21T00:17:34.312Z,8.23
2018-12-21T00:18:26.761Z,8.23
2018-12-21T00:19:26.776Z,8.18
2018-12-21T00:20:26.794Z,8.20
2018-12-21T00:21:26.812Z,8.13
2018-12-21T00:22:26.827Z,8.19
2018-12-21T00:23:26.842Z,8.28
2018-12-21T00:24:26.860Z,8.13
2018-12-21T00:25:26.876Z,8.23
2018-12-21T00:26:26.893Z,8.31
2018-12-21T00:27:26.905Z,8.23
2018-12-21T00:28:26.922Z,8.37
2018-12-21T00:29:26.939Z,8.28
2018-12-21T00:30:26.955Z,8.19
2018-12-21T00:31:26.973Z,8.24
2018-12-21T00:32:26.988Z,8.20
2018-12-21T00:33:27.003Z,8.31
2018-12-21T00:34:27.019Z,8.28
2018-12-21T00:35:27.034Z,8.30
2018-12-21T00:36:27.052Z,8.34
2018-12-21T00:37:27.067Z,8.36
2018-12-21T00:38:27.084Z,8.37
2018-12-21T00:39:27.102Z,8.37
2018-12-21T00:40:27.119Z,8.36
2018-12-21T00:41:27.132Z,8.31
2018-12-21T00:42:27.151Z,8.37
2018-12-21T00:43:27.166Z,8.37
2018-12-21T00:44:27.180Z,8.37
2018-12-21T00:45:27.197Z,8.44
2018-12-21T00:46:27.213Z,8.38
2018-12-21T00:47:27.230Z,8.45
2018-12-21T00:48:27.246Z,8.38
2018-12-21T00:49:27.264Z,8.38
2018-12-21T00:50:27.280Z,8.42
2018-12-21T00:51:30.274Z,8.36
2018-12-21T00:52:27.312Z,8.36
2018-12-21T00:53:27.326Z,8.37
2018-12-21T00:54:27.343Z,8.41
2018-12-21T00:55:27.361Z,8.37
2018-12-21T00:56:27.378Z,8.41
2018-12-21T00:57:27.394Z,8.38
2018-12-21T00:58:27.411Z,8.41
2018-12-21T00:59:27.423Z,8.41
2018-12-21T01:00:27.442Z,8.51
2018-12-21T01:01:27.456Z,8.46
2018-12-21T01:02:27.473Z,8.42
2018-12-21T01:03:27.491Z,8.36
2018-12-21T01:04:27.505Z,8.45
2018-12-21T01:05:27.521Z,8.36
2018-12-21T01:06:27.545Z,8.49
2018-12-21T01:07:27.553Z,8.37
2018-12-21T01:08:27.582Z,8.49
2018-12-21T01:09:27.589Z,8.46
2018-12-21T01:10:27.605Z,8.46
2018-12-21T01:11:27.622Z,8.44
2018-12-21T01:12:27.635Z,8.49
2018-12-21T01:13:27.654Z,8.51
2018-12-21T01:14:27.670Z,8.52
2018-12-21T01:15:27.686Z,8.51
2018-12-21T01:16:27.700Z,8.48
2018-12-21T01:17:27.720Z,8.49
2018-12-21T01:18:27.736Z,8.52
2018-12-21T01:19:27.748Z,8.48
2018-12-21T01:20:27.765Z,8.49
2018-12-21T01:21:27.782Z,8.52
2018-12-21T01:22:27.802Z,8.52
2018-12-21T01:23:27.838Z,8.63
2018-12-21T01:24:27.830Z,8.53
2018-12-21T01:25:27.846Z,8.55
2018-12-21T01:26:27.863Z,8.60
2018-12-21T01:27:27.878Z,8.51
2018-12-21T01:28:27.895Z,8.56
2018-12-21T01:29:27.912Z,8.53
2018-12-21T01:30:27.932Z,8.58
2018-12-21T01:31:27.943Z,8.49
2018-12-21T01:32:27.963Z,8.53
2018-12-21T01:33:27.979Z,8.51
2018-12-21T01:34:27.997Z,8.53
2018-12-21T01:35:28.012Z,8.49
2018-12-21T01:36:28.028Z,8.56
2018-12-21T01:37:28.041Z,8.55
2018-12-21T01:38:28.060Z,8.53
2018-12-21T01:39:28.074Z,8.66
2018-12-21T01:40:28.090Z,8.56
2018-12-21T01:41:28.109Z,8.60
2018-12-21T01:42:28.124Z,8.55
2018-12-21T01:43:28.139Z,8.61
2018-12-21T01:44:28.159Z,8.56
2018-12-21T01:45:28.172Z,8.66
2018-12-21T01:46:28.189Z,8.60
2018-12-21T01:47:28.205Z,8.63
2018-12-21T01:48:28.227Z,8.52
2018-12-21T01:49:28.240Z,8.55
2018-12-21T01:50:28.256Z,8.58
2018-12-21T01:51:28.273Z,8.56
2018-12-21T01:52:28.292Z,8.55
2018-12-21T01:53:28.305Z,8.55
2018-12-21T01:54:28.320Z,8.56
2018-12-21T01:55:28.335Z,8.52
2018-12-21T01:56:28.355Z,8.49
2018-12-21T01:57:28.371Z,8.56
2018-12-21T01:58:28.384Z,8.55
2018-12-21T01:59:28.400Z,8.61
2018-12-21T02:00:28.419Z,8.58
2018-12-21T02:01:28.435Z,8.55
2018-12-21T02:02:28.451Z,8.52
2018-12-21T02:03:28.477Z,8.58
2018-12-21T02:04:28.569Z,8.51
2018-12-21T02:05:28.499Z,8.55
2018-12-21T02:06:28.518Z,8.52
2018-12-21T02:07:28.533Z,8.67
2018-12-21T02:08:28.548Z,8.61
2018-12-21T02:09:28.566Z,8.67
2018-12-21T02:10:28.583Z,8.58
2018-12-21T02:11:28.597Z,8.64
2018-12-21T02:12:28.615Z,8.63
2018-12-21T02:13:28.630Z,8.56
2018-12-21T02:14:28.650Z,8.66
2018-12-21T02:15:28.666Z,8.64
2018-12-21T02:16:28.680Z,8.60
2018-12-21T02:17:28.694Z,8.69
2018-12-21T02:18:28.711Z,8.64
2018-12-21T02:19:28.727Z,8.53
2018-12-21T02:20:28.793Z,8.69
2018-12-21T02:21:28.762Z,8.55
2018-12-21T02:22:28.779Z,8.71
2018-12-21T02:23:28.794Z,8.63
2018-12-21T02:24:28.811Z,8.66
2018-12-21T02:25:28.826Z,8.69
2018-12-21T02:26:28.843Z,8.69
2018-12-21T02:27:28.857Z,8.70
2018-12-21T02:28:28.877Z,8.67
2018-12-21T02:29:28.893Z,8.73
2018-12-21T02:30:28.908Z,8.73
2018-12-21T02:31:28.924Z,8.79
2018-12-21T02:32:28.942Z,8.67
2018-12-21T02:33:28.956Z,8.70
2018-12-21T02:34:28.975Z,8.71
2018-12-21T02:35:29.014Z,8.71
2018-12-21T02:36:29.006Z,8.70
2018-12-21T02:37:29.024Z,8.73
2018-12-21T02:38:29.041Z,8.71
2018-12-21T02:39:29.053Z,8.71
2018-12-21T02:40:29.074Z,8.74
2018-12-21T02:41:29.090Z,8.74
2018-12-21T02:42:29.109Z,8.78
2018-12-21T02:43:29.126Z,8.76
2018-12-21T02:44:29.138Z,8.81
2018-12-21T02:45:29.156Z,8.70
2018-12-21T02:46:29.172Z,8.73
2018-12-21T02:47:29.184Z,8.82
2018-12-21T02:48:29.204Z,8.82
2018-12-21T02:49:29.222Z,8.73
2018-12-21T02:50:29.237Z,8.76
2018-12-21T02:51:29.253Z,8.73
2018-12-21T02:52:29.266Z,8.71
2018-12-21T02:53:29.282Z,8.73
2018-12-21T02:54:29.301Z,8.78
2018-12-21T02:55:29.317Z,8.78
2018-12-21T02:56:29.334Z,8.73
2018-12-21T02:57:29.351Z,8.74
2018-12-21T02:58:29.368Z,8.73
2018-12-21T02:59:29.383Z,8.67
2018-12-21T03:00:29.411Z,8.70
2018-12-21T03:01:29.415Z,8.71
2018-12-21T03:02:29.430Z,8.70
2018-12-21T03:03:29.474Z,8.71
2018-12-21T03:04:29.462Z,8.82
2018-12-21T03:05:29.482Z,8.84
2018-12-21T03:06:29.495Z,8.79
2018-12-21T03:07:29.511Z,8.92
2018-12-21T03:08:29.529Z,8.91
2018-12-21T03:09:29.547Z,8.94
2018-12-21T03:10:29.561Z,8.78
2018-12-21T03:11:29.579Z,8.79
2018-12-21T03:12:29.712Z,8.91
2018-12-21T03:13:29.613Z,8.79
2018-12-21T03:14:29.630Z,8.81
2018-12-21T03:15:29.643Z,8.92
2018-12-21T03:16:29.673Z,8.88
2018-12-21T03:17:29.676Z,8.87
2018-12-21T03:18:29.695Z,8.91
2018-12-21T03:19:29.708Z,8.81
2018-12-21T03:20:29.728Z,8.88
2018-12-21T03:21:29.746Z,8.94
2018-12-21T03:22:29.760Z,8.89
2018-12-21T03:23:29.773Z,8.81
2018-12-21T03:24:29.793Z,8.94
2018-12-21T03:25:29.808Z,8.91
2018-12-21T03:26:29.823Z,8.89
2018-12-21T03:27:29.847Z,8.91
2018-12-21T03:28:29.857Z,8.88
2018-12-21T03:29:29.875Z,8.85
2018-12-21T03:30:29.891Z,8.85
2018-12-21T03:31:29.907Z,8.79
2018-12-21T03:32:29.924Z,8.82
2018-12-21T03:33:29.939Z,8.84
2018-12-21T03:34:29.958Z,8.79
2018-12-21T03:35:29.976Z,8.82
2018-12-21T03:36:29.992Z,8.71
2018-12-21T03:37:30.005Z,8.71
2018-12-21T03:38:30.025Z,8.70
2018-12-21T03:39:30.039Z,8.70
2018-12-21T03:40:30.055Z,8.69
2018-12-21T03:41:30.078Z,8.81
2018-12-21T03:42:30.089Z,8.70
2018-12-21T03:43:30.108Z,8.74
2018-12-21T03:44:30.121Z,8.76
2018-12-21T03:45:30.141Z,8.70
2018-12-21T03:46:30.155Z,8.67
2018-12-21T03:47:30.174Z,8.69
2018-12-21T03:48:30.189Z,8.69
2018-12-21T03:49:30.204Z,8.71
2018-12-21T03:50:30.223Z,8.73
2018-12-21T03:51:30.251Z,8.70
2018-12-21T03:52:30.257Z,8.76
2018-12-21T03:53:30.272Z,8.74
2018-12-21T03:54:30.288Z,8.70
2018-12-21T03:55:30.303Z,8.78
2018-12-21T03:56:30.343Z,8.73
2018-12-21T03:57:30.340Z,8.66
2018-12-21T03:58:30.356Z,8.58
2018-12-21T03:59:30.373Z,8.66
2018-12-21T04:00:30.389Z,8.61
2018-12-21T04:01:30.405Z,8.67
2018-12-21T04:02:30.423Z,8.70
2018-12-21T04:03:30.435Z,8.56
2018-12-21T04:04:30.452Z,8.64
2018-12-21T04:05:30.720Z,8.64
2018-12-21T04:06:30.487Z,8.70
2018-12-21T04:07:30.504Z,8.63
2018-12-21T04:08:30.522Z,8.60
2018-12-21T04:09:30.536Z,8.64
2018-12-21T04:10:30.555Z,8.56
2018-12-21T04:11:30.571Z,8.58
2018-12-21T04:12:30.595Z,8.66
2018-12-21T04:13:30.603Z,8.64
2018-12-21T04:14:30.621Z,8.61
2018-12-21T04:15:30.634Z,8.64
2018-12-21T04:16:30.651Z,8.66
2018-12-21T04:17:30.669Z,8.61
2018-12-21T04:18:30.687Z,8.63
2018-12-21T04:19:30.702Z,8.60
2018-12-21T04:20:30.717Z,8.58
2018-12-21T04:21:30.741Z,8.67
2018-12-21T04:22:34.166Z,8.78
2018-12-21T04:23:30.767Z,8.63
2018-12-21T04:24:30.784Z,8.71
2018-12-21T04:25:30.804Z,8.74
2018-12-21T04:26:30.818Z,8.70
2018-12-21T04:27:30.832Z,8.73
2018-12-21T04:28:30.851Z,8.71
2018-12-21T04:29:30.865Z,8.71
2018-12-21T04:30:30.889Z,8.74
2018-12-21T04:31:30.899Z,8.76
2018-12-21T04:32:30.916Z,8.81
2018-12-21T04:33:30.932Z,8.82
2018-12-21T04:34:30.952Z,8.84
2018-12-21T04:35:30.965Z,8.78
2018-12-21T04:36:30.981Z,8.71
2018-12-21T04:37:30.998Z,8.76
2018-12-21T04:38:31.017Z,8.74
2018-12-21T04:39:31.037Z,8.76
2018-12-21T04:40:31.047Z,8.67
2018-12-21T04:41:31.067Z,8.66
2018-12-21T04:42:31.083Z,8.70
2018-12-21T04:43:31.099Z,8.78
2018-12-21T04:44:31.117Z,8.79
2018-12-21T04:45:31.130Z,8.70
2018-12-21T04:46:31.147Z,8.69
2018-12-21T04:47:31.163Z,8.74
2018-12-21T04:48:31.183Z,8.79
2018-12-21T04:49:31.196Z,8.82
2018-12-21T04:50:31.215Z,8.78
2018-12-21T04:51:31.237Z,8.79
2018-12-21T04:52:31.249Z,8.85
2018-12-21T04:53:31.265Z,8.79
2018-12-21T04:54:31.283Z,8.79
2018-12-21T04:55:31.296Z,8.78
2018-12-21T04:56:31.314Z,8.94
2018-12-21T04:57:31.330Z,8.91
2018-12-21T04:58:31.348Z,8.92
2018-12-21T04:59:31.363Z,8.91
2018-12-21T05:00:31.381Z,8.89
2018-12-21T05:01:31.405Z,8.89
2018-12-21T05:02:31.413Z,8.91
2018-12-21T05:03:31.431Z,8.95
2018-12-21T05:04:31.446Z,8.94
2018-12-21T05:05:31.466Z,8.92
2018-12-21T05:06:31.482Z,8.85
2018-12-21T05:07:31.497Z,9.06
2018-12-21T05:08:31.512Z,9.02
2018-12-21T05:09:31.533Z,9.00
2018-12-21T05:10:31.548Z,9.00
2018-12-21T05:11:31.563Z,8.95
2018-12-21T05:12:31.582Z,9.00
2018-12-21T05:13:31.599Z,9.06
2018-12-21T05:14:31.617Z,9.06
2018-12-21T05:15:31.631Z,9.02
2018-12-21T05:16:31.646Z,8.97
2018-12-21T05:17:31.666Z,9.03
2018-12-21T05:18:31.683Z,9.13
2018-12-21T05:19:31.698Z,9.08
2018-12-21T05:20:32.314Z,9.13
2018-12-21T05:21:31.730Z,9.13
2018-12-21T05:22:31.750Z,9.14
2018-12-21T05:23:31.765Z,9.18
2018-12-21T05:24:31.782Z,9.18
2018-12-21T05:25:31.797Z,9.18
2018-12-21T05:26:31.818Z,9.19
2018-12-21T05:27:31.834Z,9.23
2018-12-21T05:28:31.847Z,9.23
2018-12-21T05:29:31.867Z,9.22
2018-12-21T05:30:31.884Z,9.22
2018-12-21T05:31:31.897Z,9.22
2018-12-21T05:32:31.915Z,9.22
2018-12-21T05:33:31.935Z,9.21
2018-12-21T05:34:31.949Z,9.18
2018-12-21T05:35:31.971Z,9.14
2018-12-21T05:36:31.983Z,9.22
2018-12-21T05:37:32.004Z,9.22
2018-12-21T05:38:32.016Z,9.22
2018-12-21T05:39:32.032Z,9.22
2018-12-21T05:40:32.050Z,9.23
2018-12-21T05:41:32.172Z,9.22
2018-12-21T05:42:32.086Z,9.28
2018-12-21T05:43:32.099Z,9.28
2018-12-21T05:44:32.119Z,9.21
2018-12-21T05:45:32.134Z,9.29
2018-12-21T05:46:32.154Z,9.25
2018-12-21T05:47:32.167Z,9.21
2018-12-21T05:48:32.187Z,9.19
2018-12-21T05:49:32.207Z,9.16
2018-12-21T05:50:32.220Z,9.19
2018-12-21T05:51:32.242Z,9.11
2018-12-21T05:52:32.303Z,9.10
2018-12-21T05:53:32.271Z,9.13
2018-12-21T05:54:32.287Z,9.13
2018-12-21T05:55:32.304Z,9.08
2018-12-21T05:56:32.320Z,9.10
2018-12-21T05:57:32.337Z,9.04
2018-12-21T05:58:32.353Z,9.10
2018-12-21T05:59:32.370Z,9.13
2018-12-21T06:00:32.388Z,9.14
2018-12-21T06:01:32.403Z,9.10
2018-12-21T06:02:32.421Z,9.04
2018-12-21T06:03:32.436Z,9.11
2018-12-21T06:04:32.457Z,9.04
2018-12-21T06:05:32.470Z,9.26
2018-12-21T06:06:32.487Z,9.18
2018-12-21T06:07:33.880Z,9.21
2018-12-21T06:08:32.524Z,9.23
2018-12-21T06:09:32.539Z,9.22
2018-12-21T06:10:32.555Z,9.25
2018-12-21T06:11:32.579Z,9.28
2018-12-21T06:12:32.587Z,9.31
2018-12-21T06:13:32.606Z,9.23
2018-12-21T06:14:32.621Z,9.28
2018-12-21T06:15:32.637Z,9.28
2018-12-21T06:16:32.654Z,9.31
2018-12-21T06:17:32.674Z,9.26
2018-12-21T06:18:32.689Z,9.31
2018-12-21T06:19:32.760Z,9.29
2018-12-21T06:20:33.525Z,9.26
2018-12-21T06:21:32.739Z,9.23
2018-12-21T06:22:32.762Z,9.31
2018-12-21T06:23:32.772Z,9.39
2018-12-21T06:24:32.793Z,9.28
2018-12-21T06:25:32.808Z,9.36
2018-12-21T06:26:32.825Z,9.31
2018-12-21T06:27:32.842Z,9.36
2018-12-21T06:28:32.866Z,9.36
2018-12-21T06:29:32.874Z,9.40
2018-12-21T06:30:32.891Z,9.36
2018-12-21T06:31:32.908Z,9.40
2018-12-21T06:32:32.926Z,9.41
2018-12-21T06:33:32.950Z,9.50
2018-12-21T06:34:32.959Z,9.44
2018-12-21T06:35:32.977Z,9.46
2018-12-21T06:36:33.296Z,9.46
2018-12-21T06:37:33.009Z,9.43
2018-12-21T06:38:33.026Z,9.39
2018-12-21T06:39:33.042Z,9.40
2018-12-21T06:40:33.061Z,9.37
2018-12-21T06:41:33.078Z,9.32
2018-12-21T06:42:33.095Z,9.40
2018-12-21T06:43:33.113Z,9.37
2018-12-21T06:44:33.277Z,9.36
2018-12-21T06:45:33.146Z,9.37
2018-12-21T06:46:33.164Z,9.41
2018-12-21T06:47:33.181Z,9.32
2018-12-21T06:48:33.198Z,9.40
2018-12-21T06:49:33.214Z,9.31
2018-12-21T06:50:33.231Z,9.37
2018-12-21T06:51:33.245Z,9.29
2018-12-21T06:52:33.263Z,9.40
2018-12-21T06:53:33.281Z,9.29
2018-12-21T06:54:33.299Z,9.36
2018-12-21T06:55:33.313Z,9.34
2018-12-21T06:56:33.332Z,9.34
2018-12-21T06:57:33.350Z,9.34
2018-12-21T06:58:33.367Z,9.34
2018-12-21T06:59:33.382Z,9.41
2018-12-21T07:00:33.400Z,9.32
2018-12-21T07:01:33.417Z,9.31
2018-12-21T07:02:33.434Z,9.32
2018-12-21T07:03:33.448Z,9.36
2018-12-21T07:04:33.465Z,9.28
2018-12-21T07:05:33.484Z,9.29
2018-12-21T07:06:33.509Z,9.32
2018-12-21T07:07:33.518Z,9.29
2018-12-21T07:08:33.533Z,9.31
2018-12-21T07:09:33.550Z,9.29
2018-12-21T07:10:33.567Z,9.21
2018-12-21T07:11:33.585Z,9.26
2018-12-21T07:12:33.603Z,9.25
2018-12-21T07:13:33.617Z,9.22
2018-12-21T07:14:33.637Z,9.22
2018-12-21T07:15:33.650Z,9.31
2018-12-21T07:16:33.668Z,9.23
2018-12-21T07:17:33.685Z,9.22
2018-12-21T07:18:33.705Z,9.21
2018-12-21T07:19:33.718Z,9.16
2018-12-21T07:20:33.735Z,9.19
2018-12-21T07:21:33.752Z,9.11
2018-12-21T07:22:33.775Z,9.14
2018-12-21T07:23:33.794Z,9.21
2018-12-21T07:24:33.803Z,9.16
2018-12-21T07:25:33.819Z,9.21
2018-12-21T07:26:33.838Z,9.16
2018-12-21T07:27:33.852Z,9.14
2018-12-21T07:28:33.871Z,9.21
2018-12-21T07:29:33.892Z,9.10
2018-12-21T07:30:33.903Z,9.16
2018-12-21T07:31:33.919Z,9.13
2018-12-21T07:32:33.939Z,9.13
2018-12-21T07:33:33.955Z,9.06
2018-12-21T07:34:33.974Z,9.08
2018-12-21T07:35:33.986Z,9.08
2018-12-21T07:36:34.005Z,9.02
2018-12-21T07:37:34.023Z,9.08
2018-12-21T07:38:34.036Z,9.02
2018-12-21T07:39:34.056Z,8.95
2018-12-21T07:40:34.072Z,9.00
2018-12-21T07:41:34.088Z,9.02
2018-12-21T07:42:34.106Z,9.02
2018-12-21T07:43:34.122Z,9.02
2018-12-21T07:44:34.138Z,8.92
2018-12-21T07:45:34.154Z,9.00
2018-12-21T07:46:34.171Z,8.99
2018-12-21T07:47:34.188Z,9.04
2018-12-21T07:48:34.202Z,9.02
2018-12-21T07:49:34.221Z,9.03
2018-12-21T07:50:34.238Z,8.99
2018-12-21T07:51:34.251Z,9.02
2018-12-21T07:52:34.268Z,9.00
2018-12-21T07:53:35.974Z,9.00
2018-12-21T07:54:34.304Z,9.02
2018-12-21T07:55:34.320Z,9.00
2018-12-21T07:56:34.337Z,8.94
2018-12-21T07:57:34.352Z,9.13
2018-12-21T07:58:34.367Z,9.00
2018-12-21T07:59:34.383Z,8.95
2018-12-21T08:00:34.403Z,9.11
2018-12-21T08:01:34.421Z,9.02
2018-12-21T08:02:34.436Z,9.08
2018-12-21T08:03:34.452Z,9.06
2018-12-21T08:04:34.467Z,9.08
2018-12-21T08:05:34.532Z,9.08
2018-12-21T08:06:34.499Z,9.06
2018-12-21T08:07:34.518Z,8.97
2018-12-21T08:08:34.536Z,8.97
2018-12-21T08:09:34.552Z,8.92
2018-12-21T08:10:34.566Z,9.02
2018-12-21T08:11:34.585Z,8.97
2018-12-21T08:12:34.597Z,9.00
2018-12-21T08:13:34.614Z,9.00
2018-12-21T08:14:34.632Z,8.97
2018-12-21T08:15:34.646Z,8.99
2018-12-21T08:16:34.662Z,9.00
2018-12-21T08:17:34.683Z,9.02
2018-12-21T08:18:34.699Z,8.99
2018-12-21T08:19:34.712Z,8.94
2018-12-21T08:20:34.728Z,9.02
2018-12-21T08:21:34.748Z,9.02
2018-12-21T08:22:34.761Z,8.92
2018-12-21T08:23:34.778Z,9.02
2018-12-21T08:24:34.794Z,9.00
2018-12-21T08:25:34.814Z,9.11
2018-12-21T08:26:34.831Z,9.06
2018-12-21T08:27:34.849Z,9.03
2018-12-21T08:28:34.863Z,9.02
2018-12-21T08:29:34.877Z,8.99
2018-12-21T08:30:34.896Z,9.03
2018-12-21T08:31:34.909Z,9.02
2018-12-21T08:32:34.926Z,9.06
2018-12-21T08:33:34.942Z,9.11
2018-12-21T08:34:34.961Z,9.11
2018-12-21T08:35:34.979Z,9.14
2018-12-21T08:36:34.994Z,9.21
2018-12-21T08:37:35.011Z,9.21
2018-12-21T08:38:35.026Z,9.11
2018-12-21T08:39:35.042Z,9.19
2018-12-21T08:40:35.060Z,9.22
2018-12-21T08:41:35.076Z,9.22
2018-12-21T08:42:35.097Z,9.23
2018-12-21T08:43:35.109Z,9.26
2018-12-21T08:44:35.133Z,9.32
2018-12-21T08:45:35.140Z,9.34
2018-12-21T08:46:35.157Z,9.36
2018-12-21T08:47:35.175Z,9.41
2018-12-21T08:48:35.199Z,9.37
2018-12-21T08:49:35.208Z,9.40
2018-12-21T08:50:35.226Z,9.44
2018-12-21T08:51:35.242Z,9.41
2018-12-21T08:52:35.259Z,9.31
2018-12-21T08:53:35.277Z,9.46
2018-12-21T08:54:35.293Z,9.44
2018-12-21T08:55:35.309Z,9.43
2018-12-21T08:56:35.325Z,9.44
2018-12-21T08:57:35.343Z,9.51
2018-12-21T08:58:35.359Z,9.48
2018-12-21T08:59:35.377Z,9.55
2018-12-21T09:00:35.391Z,9.56
2018-12-21T09:01:35.413Z,9.55
2018-12-21T09:02:35.526Z,9.64
2018-12-21T09:03:35.441Z,9.56
2018-12-21T09:04:35.461Z,9.62
2018-12-21T09:05:35.477Z,9.69
2018-12-21T09:06:35.495Z,9.64
2018-12-21T09:07:37.220Z,9.68
2018-12-21T09:08:35.528Z,9.76
2018-12-21T09:09:35.546Z,9.66
2018-12-21T09:10:35.563Z,9.77
2018-12-21T09:11:35.576Z,9.77
2018-12-21T09:12:35.597Z,9.79
2018-12-21T09:13:35.610Z,9.74
2018-12-21T09:14:35.630Z,9.69
2018-12-21T09:15:35.649Z,9.84
2018-12-21T09:16:35.663Z,9.84
2018-12-21T09:17:35.679Z,9.87
2018-12-21T09:18:35.699Z,9.86
2018-12-21T09:19:35.714Z,9.79
2018-12-21T09:20:35.729Z,9.80
2018-12-21T09:21:35.749Z,9.84
2018-12-21T09:22:35.766Z,9.83
2018-12-21T09:23:35.780Z,9.83
2018-12-21T09:24:35.800Z,9.87
2018-12-21T09:25:35.814Z,9.87
2018-12-21T09:26:35.835Z,9.84
2018-12-21T09:27:35.852Z,9.84
2018-12-21T09:28:35.866Z,9.89
2018-12-21T09:29:35.883Z,9.87
2018-12-21T09:30:35.904Z,9.86
2018-12-21T09:31:37.580Z,9.87
2018-12-21T09:32:35.935Z,9.84
2018-12-21T09:33:35.953Z,9.92
2018-12-21T09:34:35.971Z,9.91
2018-12-21T09:35:35.985Z,9.92
2018-12-21T09:36:36.122Z,9.89
2018-12-21T09:37:36.020Z,9.91
2018-12-21T09:38:36.040Z,9.91
2018-12-21T09:39:36.056Z,9.89
2018-12-21T09:40:36.072Z,9.94
2018-12-21T09:41:36.088Z,9.94
2018-12-21T09:42:36.106Z,9.94
2018-12-21T09:43:36.125Z,9.92
2018-12-21T09:44:36.141Z,9.95
2018-12-21T09:45:36.157Z,9.98
2018-12-21T09:46:36.178Z,9.94
2018-12-21T09:47:36.193Z,9.99
2018-12-21T09:48:36.208Z,9.99
2018-12-21T09:49:36.227Z,10.04
2018-12-21T09:50:36.249Z,10.10
2018-12-21T09:51:36.259Z,10.07
2018-12-21T09:52:36.278Z,9.97
2018-12-21T09:53:36.296Z,9.95
2018-12-21T09:54:36.315Z,9.99
2018-12-21T09:55:36.328Z,10.09
2018-12-21T09:56:36.348Z,10.09
2018-12-21T09:57:36.366Z,9.97
2018-12-21T09:58:36.380Z,9.99
2018-12-21T09:59:36.398Z,10.04
2018-12-21T10:00:36.418Z,10.07
2018-12-21T10:01:36.432Z,9.94
2018-12-21T10:02:36.450Z,9.99
2018-12-21T10:03:36.466Z,9.94
2018-12-21T10:04:36.487Z,10.01
2018-12-21T10:05:36.506Z,9.99
2018-12-21T10:06:36.521Z,9.94
2018-12-21T10:07:36.537Z,9.97
2018-12-21T10:08:36.556Z,10.07
2018-12-21T10:09:36.573Z,9.97
2018-12-21T10:10:36.587Z,9.97
2018-12-21T10:11:36.606Z,10.02
2018-12-21T10:12:36.624Z,10.12
2018-12-21T10:13:36.642Z,10.09
2018-12-21T10:14:36.659Z,9.95
2018-12-21T10:15:36.677Z,10.01
2018-12-21T10:16:36.690Z,9.99
2018-12-21T10:17:36.710Z,9.99
2018-12-21T10:18:36.725Z,10.01
2018-12-21T10:19:36.742Z,9.98
2018-12-21T10:20:36.760Z,9.97
2018-12-21T10:21:36.780Z,10.01
2018-12-21T10:22:36.794Z,9.95
2018-12-21T10:23:36.813Z,10.09
2018-12-21T10:24:36.831Z,10.05
2018-12-21T10:25:36.848Z,10.10
2018-12-21T10:26:36.866Z,9.99
2018-12-21T10:27:36.879Z,10.10
2018-12-21T10:28:36.900Z,10.04
2018-12-21T10:29:36.917Z,10.12
2018-12-21T10:30:36.933Z,10.09
2018-12-21T10:31:36.950Z,10.09
2018-12-21T10:32:36.965Z,10.15
2018-12-21T10:33:36.983Z,10.07
2018-12-21T10:34:37.001Z,10.07
2018-12-21T10:35:37.017Z,10.20
2018-12-21T10:36:37.035Z,10.17
2018-12-21T10:37:37.052Z,10.19
2018-12-21T10:38:37.073Z,10.19
2018-12-21T10:39:37.086Z,10.19
2018-12-21T10:40:37.108Z,10.26
2018-12-21T10:41:37.122Z,10.15
2018-12-21T10:42:37.140Z,10.15
2018-12-21T10:43:37.155Z,10.19
2018-12-21T10:44:37.176Z,10.16
2018-12-21T10:45:41.547Z,10.16
2018-12-21T10:46:37.207Z,10.23
2018-12-21T10:47:37.226Z,10.22
2018-12-21T10:48:37.469Z,10.22
2018-12-21T10:49:37.262Z,10.25
2018-12-21T10:50:37.277Z,10.22
2018-12-21T10:51:37.297Z,10.31
2018-12-21T10:52:38.946Z,10.33
2018-12-21T10:53:39.321Z,10.19
2018-12-21T10:54:37.346Z,10.31
2018-12-21T10:55:37.367Z,10.34
2018-12-21T10:56:37.382Z,10.28
2018-12-21T10:57:37.548Z,10.31
2018-12-21T10:58:37.416Z,10.35
2018-12-21T10:59:43.323Z,10.41
2018-12-21T11:00:37.450Z,10.41
2018-12-21T11:01:37.471Z,10.34
2018-12-21T11:02:37.487Z,10.31
2018-12-21T11:03:37.502Z,10.37
2018-12-21T11:04:37.523Z,10.41
2018-12-21T11:05:37.537Z,10.35
2018-12-21T11:06:37.557Z,10.51
2018-12-21T11:07:37.571Z,10.57
2018-12-21T11:08:37.588Z,10.54
2018-12-21T11:09:37.606Z,10.54
2018-12-21T11:10:37.627Z,10.54
2018-12-21T11:11:37.643Z,10.48
2018-12-21T11:12:37.661Z,10.57
2018-12-21T11:13:37.679Z,10.64
2018-12-21T11:14:37.696Z,10.57
2018-12-21T11:15:37.710Z,10.53
2018-12-21T11:16:37.729Z,10.56
2018-12-21T11:17:37.748Z,10.61
2018-12-21T11:18:37.763Z,10.72
2018-12-21T11:19:37.779Z,10.68
2018-12-21T11:20:37.799Z,10.67
2018-12-21T11:21:37.814Z,10.63
2018-12-21T11:22:38.032Z,10.69
2018-12-21T11:23:37.851Z,10.71
2018-12-21T11:24:37.868Z,10.64
2018-12-21T11:25:37.884Z,10.64
2018-12-21T11:26:37.901Z,10.68
2018-12-21T11:27:37.920Z,10.71
2018-12-21T11:28:37.938Z,10.72
2018-12-21T11:29:37.959Z,10.79
2018-12-21T11:30:38.021Z,10.72
2018-12-21T11:31:37.989Z,10.74
2018-12-21T11:32:38.005Z,10.79
2018-12-21T11:33:38.025Z,10.75
2018-12-21T11:34:38.042Z,10.76
2018-12-21T11:35:38.058Z,10.78
2018-12-21T11:36:38.076Z,10.87
2018-12-21T11:37:38.092Z,10.92
2018-12-21T11:38:38.110Z,10.86
2018-12-21T11:39:38.129Z,10.93
2018-12-21T11:40:38.144Z,10.92
2018-12-21T11:41:38.163Z,10.94
2018-12-21T11:42:38.180Z,11.04
2018-12-21T11:43:38.199Z,10.99
2018-12-21T11:44:38.216Z,10.99
2018-12-21T11:45:38.232Z,11.05
2018-12-21T11:46:38.250Z,11.15
2018-12-21T11:47:38.266Z,11.10
2018-12-21T11:48:38.285Z,11.08
2018-12-21T11:49:38.304Z,11.19
2018-12-21T11:50:38.324Z,11.18
2018-12-21T11:51:38.339Z,11.15
2018-12-21T11:52:38.356Z,11.25
2018-12-21T11:53:38.372Z,11.18
2018-12-21T11:54:44.229Z,11.25
2018-12-21T11:55:38.408Z,11.19
2018-12-21T11:56:38.425Z,11.19
2018-12-21T11:57:38.446Z,11.29
2018-12-21T11:58:38.464Z,11.30
2018-12-21T11:59:44.917Z,11.26
2018-12-21T12:00:38.517Z,11.29
2018-12-21T12:01:38.512Z,11.30
2018-12-21T12:02:38.532Z,11.27
2018-12-21T12:03:38.546Z,11.37
2018-12-21T12:04:38.568Z,11.37
2018-12-21T12:05:38.588Z,11.45
2018-12-21T12:06:38.650Z,11.47
2018-12-21T12:07:38.619Z,11.35
2018-12-21T12:08:38.638Z,11.41
2018-12-21T12:09:38.655Z,11.40
2018-12-21T12:10:38.671Z,11.41
2018-12-21T12:11:38.695Z,11.41
2018-12-21T12:12:39.377Z,11.57
2018-12-21T12:13:38.723Z,11.47
2018-12-21T12:14:38.745Z,11.47
2018-12-21T12:15:38.764Z,11.51
2018-12-21T12:16:38.779Z,11.57
2018-12-21T12:17:38.911Z,11.68
2018-12-21T12:18:38.915Z,11.65
2018-12-21T12:19:38.833Z,11.62
2018-12-21T12:20:38.847Z,11.77
2018-12-21T12:21:38.865Z,11.73
2018-12-21T12:22:38.883Z,11.78
2018-12-21T12:23:38.902Z,11.78
2018-12-21T12:24:38.918Z,11.83
2018-12-21T12:25:38.938Z,11.77
2018-12-21T12:26:44.343Z,11.81
2018-12-21T12:27:38.971Z,11.84
2018-12-21T12:28:38.992Z,11.88
2018-12-21T12:29:39.007Z,11.90
2018-12-21T12:30:39.026Z,11.90
2018-12-21T12:31:39.044Z,11.94
2018-12-21T12:32:39.061Z,12.00
2018-12-21T12:33:39.083Z,12.02
2018-12-21T12:34:39.097Z,12.02
2018-12-21T12:35:39.117Z,12.02
2018-12-21T12:36:39.132Z,12.10
2018-12-21T12:37:39.153Z,12.02
2018-12-21T12:38:39.171Z,12.13
2018-12-21T12:39:39.192Z,12.07
2018-12-21T12:40:39.205Z,12.18
2018-12-21T12:41:39.227Z,12.18
2018-12-21T12:42:39.244Z,12.20
2018-12-21T12:45:39.300Z,12.29
2018-12-21T12:46:39.314Z,12.22
2018-12-21T12:47:39.331Z,12.27
2018-12-21T12:48:39.352Z,12.27
2018-12-21T12:49:39.369Z,12.24
2018-12-21T12:50:39.388Z,12.22
2018-12-21T12:51:39.407Z,12.39
2018-12-21T12:52:39.425Z,12.43
2018-12-21T12:53:39.443Z,12.35
2018-12-21T12:54:39.460Z,12.37
2018-12-21T12:55:39.479Z,12.50
2018-12-21T12:56:39.497Z,12.54
2018-12-21T12:57:39.517Z,12.47
2018-12-21T13:00:42.137Z,12.50
2018-12-21T13:01:42.158Z,12.55
2018-12-21T13:02:42.177Z,12.67
2018-12-21T13:03:42.192Z,12.60
2018-12-21T13:04:42.209Z,12.62
2018-12-21T13:05:42.228Z,12.60
2018-12-21T13:06:42.249Z,12.58
2018-12-21T13:07:42.266Z,12.67
2018-12-21T13:08:42.285Z,12.67
2018-12-21T13:09:42.303Z,12.72
2018-12-21T13:10:42.322Z,12.75
2018-12-21T13:11:42.339Z,12.79
2018-12-21T13:12:42.359Z,12.73
2018-12-21T13:13:42.379Z,12.83
2018-12-21T13:14:42.396Z,12.85
2018-12-21T13:15:42.416Z,12.86
2018-12-21T13:16:42.483Z,12.93